createdAt,value
2018-06-16T00:00:36.536Z,17.33
2018-06-16T00:03:05.343Z,17.21
2018-06-16T00:05:34.129Z,17.27
2018-06-16T00:08:02.909Z,17.22
2018-06-16T00:10:31.749Z,17.23
2018-06-16T00:13:00.544Z,17.28
2018-06-16T00:15:29.355Z,16.83
2018-06-16T00:17:58.220Z,17.19
2018-06-16T00:20:27.180Z,17.23
2018-06-16T00:22:55.970Z,17.11
2018-06-16T00:25:24.794Z,17.01
2018-06-16T00:27:53.558Z,16.89
2018-06-16T00:30:22.330Z,16.71
2018-06-16T00:32:51.085Z,16.59
2018-06-16T00:35:19.870Z,16.59
2018-06-16T00:37:48.676Z,16.66
2018-06-16T00:40:17.459Z,16.43
2018-06-16T00:42:46.284Z,16.49
2018-06-16T00:45:15.118Z,16.17
2018-06-16T00:47:43.943Z,16.32
2018-06-16T00:50:12.722Z,16.25
2018-06-16T00:52:41.491Z,16.57
2018-06-16T00:55:10.285Z,16.56
2018-06-16T00:57:45.964Z,16.53
2018-06-16T01:00:15.446Z,16.37
2018-06-16T01:02:44.250Z,16.38
2018-06-16T01:05:13.090Z,16.41
2018-06-16T01:07:41.846Z,16.35
2018-06-16T01:10:11.562Z,16.32
2018-06-16T01:12:40.594Z,16.28
2018-06-16T01:15:09.422Z,15.86
2018-06-16T01:17:38.194Z,15.76
2018-06-16T01:20:07.006Z,15.62
2018-06-16T01:22:36.157Z,16.02
2018-06-16T01:25:05.197Z,15.86
2018-06-16T01:27:34.016Z,16.03
2018-06-16T01:30:02.835Z,15.89
2018-06-16T01:32:31.607Z,15.83
2018-06-16T01:35:00.394Z,15.92
2018-06-16T01:37:29.158Z,15.91
2018-06-16T01:39:57.927Z,16.09
2018-06-16T01:42:26.690Z,15.97
2018-06-16T01:44:55.453Z,15.69
2018-06-16T01:47:24.230Z,15.97
2018-06-16T01:49:53.014Z,16.00
2018-06-16T01:52:21.857Z,15.93
2018-06-16T01:54:50.641Z,16.01
2018-06-16T01:57:19.411Z,16.03
2018-06-16T01:59:48.157Z,15.87
2018-06-16T02:02:16.921Z,15.90
2018-06-16T02:04:45.738Z,15.69
2018-06-16T02:07:14.553Z,15.78
2018-06-16T02:09:43.329Z,15.93
2018-06-16T02:12:12.161Z,15.72
2018-06-16T02:14:40.957Z,15.58
2018-06-16T02:17:09.777Z,15.85
2018-06-16T02:19:38.554Z,15.92
2018-06-16T02:22:07.498Z,15.52
2018-06-16T02:24:36.286Z,15.57
2018-06-16T02:27:05.162Z,15.91
2018-06-16T02:29:33.977Z,15.82
2018-06-16T02:32:02.738Z,15.63
2018-06-16T02:34:31.501Z,15.80
2018-06-16T02:37:00.329Z,15.62
2018-06-16T02:39:29.968Z,15.77
2018-06-16T02:41:58.753Z,15.81
2018-06-16T02:44:27.518Z,15.68
2018-06-16T02:46:56.282Z,15.75
2018-06-16T02:49:25.045Z,15.87
2018-06-16T02:51:53.837Z,15.79
2018-06-16T02:54:22.630Z,15.69
2018-06-16T02:56:51.418Z,15.86
2018-06-16T02:59:20.238Z,15.82
2018-06-16T03:01:49.052Z,15.66
2018-06-16T03:04:17.814Z,15.67
2018-06-16T03:06:46.566Z,15.63
2018-06-16T03:09:15.341Z,15.77
2018-06-16T03:11:44.155Z,15.80
2018-06-16T03:14:13.090Z,15.85
2018-06-16T03:16:41.911Z,15.95
2018-06-16T03:19:10.662Z,15.96
2018-06-16T03:21:39.705Z,15.82
2018-06-16T03:24:08.526Z,15.93
2018-06-16T03:26:37.294Z,15.79
2018-06-16T03:29:06.090Z,15.93
2018-06-16T03:31:34.852Z,15.93
2018-06-16T03:34:03.694Z,15.95
2018-06-16T03:36:32.473Z,16.07
2018-06-16T03:39:01.234Z,15.93
2018-06-16T03:41:30.014Z,16.13
2018-06-16T03:43:58.802Z,16.21
2018-06-16T03:46:27.574Z,16.25
2018-06-16T03:48:56.382Z,16.28
2018-06-16T03:51:25.142Z,16.18
2018-06-16T03:53:53.906Z,16.28
2018-06-16T03:56:22.670Z,16.34
2018-06-16T03:58:51.453Z,16.36
2018-06-16T04:01:20.214Z,16.40
2018-06-16T04:03:48.978Z,16.41
2018-06-16T04:06:17.773Z,16.35
2018-06-16T04:08:46.595Z,16.31
2018-06-16T04:11:15.377Z,16.40
2018-06-16T04:13:44.143Z,16.43
2018-06-16T04:16:12.929Z,16.56
2018-06-16T04:18:41.703Z,16.76
2018-06-16T04:21:10.522Z,17.00
2018-06-16T04:23:39.295Z,16.55
2018-06-16T04:26:08.046Z,17.27
2018-06-16T04:28:36.848Z,17.39
2018-06-16T04:31:05.655Z,17.48
2018-06-16T04:33:34.421Z,17.60
2018-06-16T04:36:03.208Z,17.65
2018-06-16T04:38:32.007Z,17.60
2018-06-16T04:41:00.813Z,17.63
2018-06-16T04:43:29.642Z,17.65
2018-06-16T04:45:58.478Z,17.67
2018-06-16T04:48:27.260Z,17.71
2018-06-16T04:50:56.037Z,17.77
2018-06-16T04:53:24.804Z,17.85
2018-06-16T04:55:53.570Z,18.01
2018-06-16T04:58:22.358Z,18.23
2018-06-16T05:00:51.118Z,18.42
2018-06-16T05:03:19.885Z,18.52
2018-06-16T05:05:48.835Z,18.80
2018-06-16T05:08:17.596Z,18.85
2018-06-16T05:10:46.438Z,18.84
2018-06-16T05:13:15.377Z,18.80
2018-06-16T05:15:44.197Z,18.87
2018-06-16T05:18:12.985Z,18.98
2018-06-16T05:20:41.753Z,18.86
2018-06-16T05:23:10.618Z,18.80
2018-06-16T05:25:39.407Z,18.77
2018-06-16T05:28:08.198Z,18.79
2018-06-16T05:30:37.001Z,18.82
2018-06-16T05:33:05.881Z,18.85
2018-06-16T05:35:34.686Z,18.87
2018-06-16T05:38:03.576Z,18.81
2018-06-16T05:40:32.346Z,18.60
2018-06-16T05:43:01.134Z,18.64
2018-06-16T05:45:29.922Z,18.62
2018-06-16T05:47:58.691Z,18.64
2018-06-16T05:50:27.535Z,18.63
2018-06-16T05:52:56.617Z,18.65
2018-06-16T05:55:26.310Z,18.62
2018-06-16T05:57:55.895Z,18.72
2018-06-16T06:00:25.558Z,18.74
2018-06-16T06:02:54.738Z,18.83
2018-06-16T06:05:23.798Z,18.84
2018-06-16T06:07:52.612Z,18.88
2018-06-16T06:10:21.453Z,18.95
2018-06-16T06:12:50.237Z,18.93
2018-06-16T06:15:19.015Z,18.93
2018-06-16T06:17:47.970Z,18.95
2018-06-16T06:20:16.802Z,18.95
2018-06-16T06:22:46.046Z,18.90
2018-06-16T06:25:15.092Z,18.99
2018-06-16T06:27:44.020Z,18.95
2018-06-16T06:30:12.875Z,18.97
2018-06-16T06:32:41.685Z,18.94
2018-06-16T06:35:10.511Z,18.97
2018-06-16T06:37:39.436Z,18.98
2018-06-16T06:40:08.682Z,19.01
2018-06-16T06:42:38.226Z,18.92
2018-06-16T06:45:07.479Z,18.98
2018-06-16T06:47:36.595Z,19.01
2018-06-16T06:50:06.566Z,19.02
2018-06-16T06:52:35.888Z,18.99
2018-06-16T06:55:04.700Z,19.01
2018-06-16T06:57:33.879Z,19.00
2018-06-16T07:00:02.744Z,18.74
2018-06-16T07:02:31.546Z,19.03
2018-06-16T07:05:00.403Z,19.05
2018-06-16T07:07:29.201Z,19.07
2018-06-16T07:09:58.037Z,19.18
2018-06-16T07:12:27.329Z,19.23
2018-06-16T07:14:56.101Z,19.25
2018-06-16T07:17:25.513Z,19.33
2018-06-16T07:19:54.401Z,19.32
2018-06-16T07:22:23.358Z,19.34
2018-06-16T07:24:52.263Z,19.36
2018-06-16T07:27:21.409Z,19.41
2018-06-16T07:29:50.204Z,19.39
2018-06-16T07:32:19.001Z,19.40
2018-06-16T07:34:47.794Z,19.42
2018-06-16T07:37:16.628Z,19.46
2018-06-16T07:39:45.921Z,19.45
2018-06-16T07:42:14.987Z,19.43
2018-06-16T07:44:43.986Z,19.39
2018-06-16T07:47:13.020Z,19.40
2018-06-16T07:49:41.900Z,19.46
2018-06-16T07:52:10.696Z,19.58
2018-06-16T07:54:39.470Z,19.58
2018-06-16T07:57:08.306Z,19.54
2018-06-16T07:59:37.628Z,19.54
2018-06-16T08:02:06.514Z,19.51
2018-06-16T08:04:36.039Z,19.47
2018-06-16T08:07:05.727Z,19.47
2018-06-16T08:09:34.771Z,19.47
2018-06-16T08:12:03.929Z,19.54
2018-06-16T08:14:32.790Z,19.62
2018-06-16T08:17:01.554Z,19.61
2018-06-16T08:19:30.364Z,19.53
2018-06-16T08:21:59.199Z,19.54
2018-06-16T08:24:28.678Z,19.56
2018-06-16T08:26:57.620Z,19.65
2018-06-16T08:29:26.369Z,19.67
2018-06-16T08:31:55.938Z,19.63
2018-06-16T08:34:24.814Z,19.62
2018-06-16T08:36:53.809Z,19.62
2018-06-16T08:39:22.566Z,19.58
2018-06-16T08:41:51.394Z,19.55
2018-06-16T08:44:20.248Z,19.52
2018-06-16T08:46:49.479Z,19.52
2018-06-16T08:49:18.588Z,19.57
2018-06-16T08:51:48.089Z,19.61
2018-06-16T08:54:23.509Z,19.68
2018-06-16T08:56:52.279Z,19.69
2018-06-16T08:59:21.128Z,19.64
2018-06-16T09:01:50.065Z,19.62
2018-06-16T09:04:20.057Z,19.64
2018-06-16T09:06:49.062Z,19.68
2018-06-16T09:09:19.223Z,19.75
2018-06-16T09:11:49.177Z,19.79
2018-06-16T09:14:18.239Z,19.78
2018-06-16T09:16:47.042Z,19.88
2018-06-16T09:19:15.813Z,19.90
2018-06-16T09:21:44.628Z,19.89
2018-06-16T09:24:13.434Z,19.84
2018-06-16T09:26:42.298Z,16.47
2018-06-16T09:29:11.557Z,19.86
2018-06-16T09:31:40.727Z,19.76
2018-06-16T09:34:10.007Z,19.58
2018-06-16T09:36:39.408Z,19.28
2018-06-16T09:39:10.700Z,19.39
2018-06-16T09:41:40.078Z,19.31
2018-06-16T09:44:09.640Z,18.89
2018-06-16T09:46:38.559Z,19.32
2018-06-16T09:49:07.451Z,19.32
2018-06-16T09:51:36.632Z,19.23
2018-06-16T09:54:05.517Z,19.28
2018-06-16T09:56:34.324Z,19.23
2018-06-16T09:59:03.109Z,19.28
2018-06-16T10:01:31.910Z,19.27
2018-06-16T10:04:00.682Z,19.29
2018-06-16T10:06:29.502Z,19.35
2018-06-16T10:08:58.793Z,19.50
2018-06-16T10:11:28.408Z,19.66
2018-06-16T10:13:58.018Z,19.71
2018-06-16T10:16:27.085Z,19.79
2018-06-16T10:18:55.986Z,19.90
2018-06-16T10:21:24.801Z,19.92
2018-06-16T10:23:53.617Z,19.93
2018-06-16T10:26:22.385Z,20.02
2018-06-16T10:28:51.374Z,20.02
2018-06-16T10:31:20.282Z,20.09
2018-06-16T10:33:49.879Z,19.62
2018-06-16T10:36:21.230Z,20.12
2018-06-16T10:38:50.499Z,20.04
2018-06-16T10:41:19.421Z,19.98
2018-06-16T10:43:48.216Z,19.95
2018-06-16T10:46:17.018Z,19.88
2018-06-16T10:48:45.833Z,19.82
2018-06-16T10:51:14.617Z,19.70
2018-06-16T10:53:43.401Z,19.57
2018-06-16T10:56:12.210Z,19.56
2018-06-16T10:58:40.965Z,19.66
2018-06-16T11:01:09.746Z,19.71
2018-06-16T11:03:38.523Z,19.75
2018-06-16T11:06:07.294Z,19.84
2018-06-16T11:08:36.093Z,19.88
2018-06-16T11:11:04.862Z,19.90
2018-06-16T11:13:33.624Z,19.97
2018-06-16T11:16:02.371Z,19.96
2018-06-16T11:18:31.102Z,19.95
2018-06-16T11:20:59.904Z,19.96
2018-06-16T11:23:28.639Z,19.91
2018-06-16T11:25:57.427Z,19.89
2018-06-16T11:28:26.220Z,19.80
2018-06-16T11:30:55.027Z,19.73
2018-06-16T11:33:23.807Z,19.79
2018-06-16T11:35:52.689Z,19.87
2018-06-16T11:38:21.458Z,19.86
2018-06-16T11:40:50.320Z,19.81
2018-06-16T11:43:19.034Z,19.86
2018-06-16T11:45:47.794Z,19.83
2018-06-16T11:48:16.565Z,19.84
2018-06-16T11:50:45.368Z,19.94
2018-06-16T11:53:14.189Z,20.01
2018-06-16T11:55:42.987Z,20.06
2018-06-16T11:58:11.776Z,20.12
2018-06-16T12:00:40.581Z,20.13
2018-06-16T12:03:09.430Z,20.17
2018-06-16T12:05:38.238Z,20.12
2018-06-16T12:08:07.054Z,20.14
2018-06-16T12:10:35.847Z,20.25
2018-06-16T12:13:04.658Z,20.34
2018-06-16T12:15:33.410Z,20.28
2018-06-16T12:18:02.196Z,20.28
2018-06-16T12:20:30.966Z,20.40
2018-06-16T12:22:59.799Z,20.32
2018-06-16T12:25:28.573Z,20.33
2018-06-16T12:27:57.321Z,20.29
2018-06-16T12:30:26.182Z,20.26
2018-06-16T12:32:54.949Z,20.27
2018-06-16T12:35:23.747Z,20.25
2018-06-16T12:37:52.576Z,20.27
2018-06-16T12:40:21.337Z,19.86
2018-06-16T12:42:50.094Z,20.27
2018-06-16T12:45:18.841Z,20.26
2018-06-16T12:47:47.616Z,20.21
2018-06-16T12:50:16.381Z,18.40
2018-06-16T12:52:45.138Z,20.17
2018-06-16T12:55:13.899Z,20.16
2018-06-16T12:57:42.666Z,20.15
2018-06-16T13:00:11.463Z,20.07
2018-06-16T13:02:40.263Z,20.09
2018-06-16T13:05:09.200Z,20.15
2018-06-16T13:07:37.998Z,20.20
2018-06-16T13:10:06.762Z,20.23
2018-06-16T13:12:35.529Z,20.29
2018-06-16T13:15:04.344Z,20.38
2018-06-16T13:17:33.472Z,20.32
2018-06-16T13:20:02.257Z,20.32
2018-06-16T13:22:31.125Z,20.32
2018-06-16T13:25:00.153Z,20.29
2018-06-16T13:27:29.255Z,20.31
2018-06-16T13:29:58.269Z,20.29
2018-06-16T13:32:27.298Z,20.31
2018-06-16T13:34:56.322Z,20.32
2018-06-16T13:37:25.379Z,20.30
2018-06-16T13:39:54.459Z,20.35
2018-06-16T13:42:23.502Z,20.31
2018-06-16T13:44:52.745Z,20.33
2018-06-16T13:47:21.534Z,20.32
2018-06-16T13:49:50.324Z,20.34
2018-06-16T13:52:19.283Z,20.40
2018-06-16T13:54:48.061Z,20.42
2018-06-16T13:57:16.837Z,20.44
2018-06-16T13:59:45.614Z,20.48
2018-06-16T14:02:14.361Z,20.62
2018-06-16T14:04:43.164Z,20.65
2018-06-16T14:07:11.999Z,20.57
2018-06-16T14:09:40.871Z,20.53
2018-06-16T14:12:09.681Z,20.46
2018-06-16T14:14:38.461Z,20.45
2018-06-16T14:17:07.247Z,20.42
2018-06-16T14:19:36.041Z,20.39
2018-06-16T14:22:04.828Z,20.40
2018-06-16T14:24:33.661Z,20.39
2018-06-16T14:27:02.498Z,20.46
2018-06-16T14:29:31.300Z,20.52
2018-06-16T14:32:00.103Z,20.51
2018-06-16T14:34:28.929Z,20.52
2018-06-16T14:36:57.706Z,20.60
2018-06-16T14:39:26.470Z,20.56
2018-06-16T14:41:55.281Z,20.54
2018-06-16T14:44:24.050Z,20.53
2018-06-16T14:46:52.869Z,20.52
2018-06-16T14:49:21.672Z,20.56
2018-06-16T14:51:50.456Z,20.59
2018-06-16T14:54:19.273Z,20.59
2018-06-16T14:56:48.107Z,20.65
2018-06-16T14:59:17.073Z,20.68
2018-06-16T15:01:45.850Z,20.74
2018-06-16T15:04:14.622Z,20.91
2018-06-16T15:06:43.458Z,20.81
2018-06-16T15:09:12.710Z,20.81
2018-06-16T15:11:41.589Z,20.80
2018-06-16T15:14:10.371Z,20.86
2018-06-16T15:16:39.150Z,20.88
2018-06-16T15:19:07.953Z,20.91
2018-06-16T15:21:36.779Z,20.98
2018-06-16T15:24:05.598Z,21.03
2018-06-16T15:26:34.401Z,21.13
2018-06-16T15:29:03.224Z,20.99
2018-06-16T15:31:32.006Z,20.86
2018-06-16T15:34:00.795Z,20.83
2018-06-16T15:36:29.775Z,20.54
2018-06-16T15:38:58.662Z,20.80
2018-06-16T15:41:27.497Z,20.79
2018-06-16T15:43:56.308Z,20.76
2018-06-16T15:46:25.113Z,20.75
2018-06-16T15:48:53.951Z,20.74
2018-06-16T15:51:22.753Z,20.74
2018-06-16T15:53:51.853Z,20.73
2018-06-16T15:56:20.830Z,20.73
2018-06-16T15:58:49.594Z,20.68
2018-06-16T16:01:18.382Z,20.64
2018-06-16T16:03:47.201Z,20.63
2018-06-16T16:06:16.248Z,20.65
2018-06-16T16:08:45.102Z,20.66
2018-06-16T16:11:13.930Z,20.63
2018-06-16T16:13:43.111Z,20.63
2018-06-16T16:16:11.895Z,20.56
2018-06-16T16:18:40.677Z,20.55
2018-06-16T16:21:09.620Z,20.55
2018-06-16T16:23:38.474Z,20.53
2018-06-16T16:26:07.435Z,20.53
2018-06-16T16:28:36.682Z,20.49
2018-06-16T16:31:06.618Z,20.45
2018-06-16T16:33:35.672Z,20.42
2018-06-16T16:36:04.627Z,20.39
2018-06-16T16:38:33.506Z,20.35
2018-06-16T16:41:02.347Z,20.29
2018-06-16T16:43:31.194Z,20.32
2018-06-16T16:46:00.034Z,20.32
2018-06-16T16:48:28.894Z,20.24
2018-06-16T16:50:57.680Z,20.32
2018-06-16T16:53:26.737Z,20.32
2018-06-16T16:55:55.589Z,20.34
2018-06-16T16:58:24.389Z,20.39
2018-06-16T17:00:53.244Z,20.41
2018-06-16T17:03:22.030Z,20.37
2018-06-16T17:05:51.018Z,20.40
2018-06-16T17:08:19.803Z,20.38
2018-06-16T17:10:48.613Z,20.33
2018-06-16T17:13:17.479Z,20.33
2018-06-16T17:15:46.386Z,20.32
2018-06-16T17:18:15.203Z,20.32
2018-06-16T17:20:44.031Z,20.32
2018-06-16T17:23:12.887Z,20.30
2018-06-16T17:25:41.715Z,20.23
2018-06-16T17:28:10.470Z,20.24
2018-06-16T17:30:39.242Z,20.23
2018-06-16T17:33:08.070Z,20.03
2018-06-16T17:35:36.966Z,20.13
2018-06-16T17:38:05.949Z,20.12
2018-06-16T17:40:34.795Z,20.18
2018-06-16T17:43:03.798Z,20.21
2018-06-16T17:45:32.629Z,20.22
2018-06-16T17:48:01.422Z,20.19
2018-06-16T17:50:30.388Z,20.23
2018-06-16T17:52:59.176Z,20.24
2018-06-16T17:55:27.969Z,20.22
2018-06-16T17:57:56.944Z,20.23
2018-06-16T18:00:25.769Z,20.15
2018-06-16T18:02:54.565Z,20.13
2018-06-16T18:05:23.514Z,20.05
2018-06-16T18:07:52.302Z,20.07
2018-06-16T18:10:21.077Z,20.02
2018-06-16T18:12:49.874Z,20.00
2018-06-16T18:15:18.697Z,20.02
2018-06-16T18:17:47.597Z,19.98
2018-06-16T18:20:16.375Z,19.99
2018-06-16T18:22:45.214Z,19.98
2018-06-16T18:25:14.017Z,18.65
2018-06-16T18:27:42.793Z,19.92
2018-06-16T18:30:11.595Z,19.84
2018-06-16T18:32:40.387Z,19.77
2018-06-16T18:35:09.235Z,19.68
2018-06-16T18:37:38.091Z,19.65
2018-06-16T18:40:06.986Z,19.59
2018-06-16T18:42:35.842Z,19.55
2018-06-16T18:45:04.790Z,19.47
2018-06-16T18:47:33.569Z,19.45
2018-06-16T18:50:02.419Z,19.45
2018-06-16T18:52:31.171Z,19.43
2018-06-16T18:54:59.963Z,19.37
2018-06-16T18:57:28.737Z,19.35
2018-06-16T18:59:57.512Z,19.27
2018-06-16T19:02:26.283Z,19.21
2018-06-16T19:04:55.062Z,19.19
2018-06-16T19:07:23.878Z,19.12
2018-06-16T19:09:52.966Z,19.02
2018-06-16T19:12:21.772Z,19.00
2018-06-16T19:14:50.797Z,18.99
2018-06-16T19:17:19.577Z,18.93
2018-06-16T19:19:48.611Z,18.94
2018-06-16T19:22:17.482Z,18.91
2018-06-16T19:24:46.334Z,18.83
2018-06-16T19:27:15.270Z,18.81
2018-06-16T19:29:44.051Z,18.70
2018-06-16T19:32:12.829Z,18.62
2018-06-16T19:34:41.570Z,18.59
2018-06-16T19:37:10.426Z,18.42
2018-06-16T19:39:39.193Z,18.43
2018-06-16T19:42:07.958Z,18.41
2018-06-16T19:44:36.769Z,18.35
2018-06-16T19:47:05.700Z,18.23
2018-06-16T19:49:34.470Z,18.24
2018-06-16T19:52:03.287Z,18.31
2018-06-16T19:54:32.062Z,18.27
2018-06-16T19:57:00.825Z,17.78
2018-06-16T19:59:29.613Z,18.29
2018-06-16T20:01:58.414Z,18.24
2018-06-16T20:04:27.191Z,18.22
2018-06-16T20:06:55.957Z,18.18
2018-06-16T20:09:24.783Z,18.20
2018-06-16T20:11:53.619Z,18.06
2018-06-16T20:14:22.424Z,18.11
2018-06-16T20:16:51.194Z,18.12
2018-06-16T20:19:19.970Z,17.88
2018-06-16T20:21:48.769Z,18.01
2018-06-16T20:24:17.561Z,17.76
2018-06-16T20:26:46.377Z,17.90
2018-06-16T20:29:15.217Z,17.86
2018-06-16T20:31:43.996Z,17.74
2018-06-16T20:34:12.783Z,17.66
2018-06-16T20:36:41.830Z,17.75
2018-06-16T20:39:10.615Z,17.73
2018-06-16T20:41:39.617Z,17.70
2018-06-16T20:44:08.490Z,17.74
2018-06-16T20:46:37.282Z,17.70
2018-06-16T20:49:06.371Z,17.68
2018-06-16T20:51:35.334Z,17.65
2018-06-16T20:54:04.226Z,17.63
2018-06-16T20:56:33.060Z,17.57
2018-06-16T20:59:02.387Z,17.50
2018-06-16T21:01:31.178Z,17.46
2018-06-16T21:03:59.981Z,17.28
2018-06-16T21:06:35.210Z,17.28
2018-06-16T21:09:05.640Z,17.26
2018-06-16T21:11:34.424Z,17.23
2018-06-16T21:14:03.249Z,17.34
2018-06-16T21:16:32.053Z,17.21
2018-06-16T21:19:00.821Z,17.31
2018-06-16T21:21:29.946Z,17.28
2018-06-16T21:23:58.718Z,17.27
2018-06-16T21:26:27.703Z,17.23
2018-06-16T21:28:56.517Z,16.60
2018-06-16T21:31:25.281Z,16.68
2018-06-16T21:33:54.550Z,16.72
2018-06-16T21:36:23.497Z,16.86
2018-06-16T21:38:52.443Z,16.62
2018-06-16T21:41:21.261Z,16.62
2018-06-16T21:43:50.117Z,16.28
2018-06-16T21:46:18.936Z,16.18
2018-06-16T21:48:47.702Z,16.61
2018-06-16T21:51:16.513Z,16.43
2018-06-16T21:53:45.329Z,16.64
2018-06-16T21:56:14.201Z,16.79
2018-06-16T21:58:42.997Z,16.43
2018-06-16T22:01:11.810Z,16.05
2018-06-16T22:03:40.598Z,16.52
2018-06-16T22:06:09.390Z,16.51
2018-06-16T22:08:38.477Z,16.19
2018-06-16T22:11:07.709Z,16.18
2018-06-16T22:13:36.599Z,15.98
2018-06-16T22:16:05.404Z,15.73
2018-06-16T22:18:34.390Z,15.72
2018-06-16T22:21:03.277Z,15.89
2018-06-16T22:23:32.973Z,15.72
2018-06-16T22:26:01.809Z,16.16
2018-06-16T22:28:30.643Z,16.32
2018-06-16T22:30:59.641Z,16.29
2018-06-16T22:33:28.529Z,16.27
2018-06-16T22:35:57.345Z,16.24
2018-06-16T22:38:26.167Z,16.11
2018-06-16T22:40:54.964Z,15.86
2018-06-16T22:43:24.053Z,15.86
2018-06-16T22:45:52.892Z,15.96
2018-06-16T22:48:21.917Z,15.62
2018-06-16T22:50:50.760Z,15.80
2018-06-16T22:53:19.554Z,15.42
2018-06-16T22:55:48.536Z,15.31
2018-06-16T22:58:17.334Z,15.27
2018-06-16T23:00:46.086Z,15.19
2018-06-16T23:03:14.869Z,15.02
2018-06-16T23:05:43.662Z,15.32
2018-06-16T23:08:12.452Z,15.38
2018-06-16T23:10:41.236Z,15.52
2018-06-16T23:13:10.122Z,15.23
2018-06-16T23:15:38.934Z,15.33
2018-06-16T23:18:07.754Z,15.03
2018-06-16T23:20:36.566Z,15.18
2018-06-16T23:23:05.334Z,15.34
2018-06-16T23:25:34.110Z,15.34
2018-06-16T23:28:02.945Z,15.36
2018-06-16T23:30:31.703Z,15.31
2018-06-16T23:33:00.477Z,15.19
2018-06-16T23:35:29.270Z,14.78
2018-06-16T23:37:58.189Z,15.01
2018-06-16T23:40:27.101Z,14.64
2018-06-16T23:42:55.895Z,14.78
2018-06-16T23:45:24.670Z,14.61
2018-06-16T23:47:53.481Z,14.93
2018-06-16T23:50:22.292Z,14.49
2018-06-16T23:52:51.045Z,14.57
2018-06-16T23:55:19.817Z,14.69
2018-06-16T23:57:48.621Z,14.81
